Price Hill, Ohio
Current Conditions -  °F | °C
As of 2:16 PM on Thursday 30 Oct 2014 (Local Time) from KI69 Reporting Station
Overcast Overcast  
Wind Chill: 54°   Ceiling: 4400
Heat Index: 54°   Visibility: 10mi
Dew Point: 32°   Wind: 3mph
Humidity: 44%   Direction: 330°NNW
Pressure: 30.1"   Gusts: NA
Location:  39.1104°N, 84.5743°W
Report Text: KI69 301816Z AUTO 33003KT 10SM OVC044 12/00 A3010 RMK AO1
Loading
Personal Weather Stations






























Interactive Weather Map
Tropical Storm Tracking
New forecast layout! Learn more

10-Day Weather Forecast

Advertisements
Track Severe Weather on mobile